Tifton, Georgia
Current Conditions -  °F | °C
As of 1:35 PM on Thursday 27 Nov 2014 (Local Time) from KTMA Reporting Station
Clear Clear  
Wind Chill: 12°   Ceiling: Unl
Heat Index: 12°   Visibility: 10mi
Dew Point:   Wind: 14mph
Humidity: 42%   Direction: 320°NW
Pressure: 30.24"   Gusts: 29mph
Location:  31.45°N, 83.51°W
Report Text: KTMA 271835Z AUTO 32012G25KT 10SM CLR 12/00 A3024 RMK AO2 T01221004
Loading
Personal Weather Stations






























Interactive Weather Map New forecast layout! Learn more

10-Day Weather Forecast

Advertisements
Track Severe Weather on mobile